sensor_id;sensor_type;location;lat;lon;timestamp;P1;durP1;ratioP1;P2;durP2;ratioP2
17614;SDS011;8926;49.720;6.576;2023-05-07T00:01:34;0.90;;;0.90;;
17614;SDS011;8926;49.720;6.576;2023-05-07T00:04:00;1.27;;;1.20;;
17614;SDS011;8926;49.720;6.576;2023-05-07T00:06:25;1.13;;;1.13;;
17614;SDS011;8926;49.720;6.576;2023-05-07T00:08:51;0.83;;;0.83;;
17614;SDS011;8926;49.720;6.576;2023-05-07T00:11:16;1.20;;;1.20;;
17614;SDS011;8926;49.720;6.576;2023-05-07T00:13:42;1.20;;;1.20;;
17614;SDS011;8926;49.720;6.576;2023-05-07T00:16:07;1.23;;;1.13;;
17614;SDS011;8926;49.720;6.576;2023-05-07T00:18:32;1.00;;;0.90;;
17614;SDS011;8926;49.720;6.576;2023-05-07T00:20:58;1.00;;;1.00;;
17614;SDS011;8926;49.720;6.576;2023-05-07T00:23:23;1.10;;;1.10;;
17614;SDS011;8926;49.720;6.576;2023-05-07T00:25:48;1.00;;;1.00;;
17614;SDS011;8926;49.720;6.576;2023-05-07T00:28:14;0.90;;;0.90;;
17614;SDS011;8926;49.720;6.576;2023-05-07T00:30:39;0.93;;;0.93;;
17614;SDS011;8926;49.720;6.576;2023-05-07T00:33:04;1.07;;;1.07;;
17614;SDS011;8926;49.720;6.576;2023-05-07T00:35:30;0.80;;;0.80;;
17614;SDS011;8926;49.720;6.576;2023-05-07T00:37:55;1.03;;;1.03;;
17614;SDS011;8926;49.720;6.576;2023-05-07T00:40:21;1.30;;;1.20;;
17614;SDS011;8926;49.720;6.576;2023-05-07T00:42:46;0.90;;;0.90;;
17614;SDS011;8926;49.720;6.576;2023-05-07T00:45:12;1.07;;;0.97;;
17614;SDS011;8926;49.720;6.576;2023-05-07T00:47:39;1.10;;;1.00;;
17614;SDS011;8926;49.720;6.576;2023-05-07T00:50:05;0.97;;;0.97;;
17614;SDS011;8926;49.720;6.576;2023-05-07T00:52:32;1.20;;;1.10;;
17614;SDS011;8926;49.720;6.576;2023-05-07T00:54:57;0.83;;;0.83;;
17614;SDS011;8926;49.720;6.576;2023-05-07T00:57:29;1.20;;;1.10;;
17614;SDS011;8926;49.720;6.576;2023-05-07T00:59:54;1.30;;;1.20;;
17614;SDS011;8926;49.720;6.576;2023-05-07T01:02:20;1.40;;;1.30;;
17614;SDS011;8926;49.720;6.576;2023-05-07T01:04:45;1.30;;;1.20;;
17614;SDS011;8926;49.720;6.576;2023-05-07T01:07:10;1.07;;;1.07;;
17614;SDS011;8926;49.720;6.576;2023-05-07T01:09:36;1.03;;;1.00;;
17614;SDS011;8926;49.720;6.576;2023-05-07T01:12:01;1.30;;;1.20;;
17614;SDS011;8926;49.720;6.576;2023-05-07T01:14:28;1.40;;;1.20;;
17614;SDS011;8926;49.720;6.576;2023-05-07T01:16:54;1.00;;;1.00;;
17614;SDS011;8926;49.720;6.576;2023-05-07T01:19:20;1.30;;;1.20;;
17614;SDS011;8926;49.720;6.576;2023-05-07T01:21:46;1.13;;;1.10;;
17614;SDS011;8926;49.720;6.576;2023-05-07T01:24:13;1.27;;;1.20;;
17614;SDS011;8926;49.720;6.576;2023-05-07T01:26:39;1.10;;;1.10;;
17614;SDS011;8926;49.720;6.576;2023-05-07T01:29:05;1.10;;;1.10;;
17614;SDS011;8926;49.720;6.576;2023-05-07T01:31:32;1.30;;;1.20;;
17614;SDS011;8926;49.720;6.576;2023-05-07T01:33:59;1.10;;;1.10;;
17614;SDS011;8926;49.720;6.576;2023-05-07T01:36:26;1.90;;;1.30;;
17614;SDS011;8926;49.720;6.576;2023-05-07T01:38:54;2.37;;;1.73;;
17614;SDS011;8926;49.720;6.576;2023-05-07T01:41:19;2.20;;;1.30;;
17614;SDS011;8926;49.720;6.576;2023-05-07T01:43:46;1.40;;;1.30;;
17614;SDS011;8926;49.720;6.576;2023-05-07T01:46:12;2.00;;;1.73;;
17614;SDS011;8926;49.720;6.576;2023-05-07T01:48:38;1.90;;;1.53;;
17614;SDS011;8926;49.720;6.576;2023-05-07T01:51:04;2.67;;;1.97;;
17614;SDS011;8926;49.720;6.576;2023-05-07T01:53:35;1.93;;;1.63;;
17614;SDS011;8926;49.720;6.576;2023-05-07T01:56:01;1.80;;;1.70;;
17614;SDS011;8926;49.720;6.576;2023-05-07T01:58:26;1.60;;;1.50;;
17614;SDS011;8926;49.720;6.576;2023-05-07T02:00:52;1.33;;;1.23;;
17614;SDS011;8926;49.720;6.576;2023-05-07T02:03:17;1.63;;;1.53;;
17614;SDS011;8926;49.720;6.576;2023-05-07T02:05:42;2.30;;;1.77;;
17614;SDS011;8926;49.720;6.576;2023-05-07T02:08:08;2.53;;;2.07;;
17614;SDS011;8926;49.720;6.576;2023-05-07T02:10:33;2.23;;;2.03;;
17614;SDS011;8926;49.720;6.576;2023-05-07T02:12:58;2.47;;;2.27;;
17614;SDS011;8926;49.720;6.576;2023-05-07T02:15:26;2.40;;;2.20;;
17614;SDS011;8926;49.720;6.576;2023-05-07T02:18:04;2.87;;;2.37;;
17614;SDS011;8926;49.720;6.576;2023-05-07T02:20:31;2.30;;;2.10;;
17614;SDS011;8926;49.720;6.576;2023-05-07T02:22:56;2.37;;;2.17;;
17614;SDS011;8926;49.720;6.576;2023-05-07T02:25:22;2.10;;;2.00;;
17614;SDS011;8926;49.720;6.576;2023-05-07T02:27:47;1.80;;;1.70;;
17614;SDS011;8926;49.720;6.576;2023-05-07T02:30:13;1.50;;;1.40;;
17614;SDS011;8926;49.720;6.576;2023-05-07T02:32:39;1.50;;;1.40;;
17614;SDS011;8926;49.720;6.576;2023-05-07T02:35:05;1.50;;;1.40;;
17614;SDS011;8926;49.720;6.576;2023-05-07T02:37:30;1.60;;;1.50;;
17614;SDS011;8926;49.720;6.576;2023-05-07T02:39:55;1.70;;;1.47;;
17614;SDS011;8926;49.720;6.576;2023-05-07T02:42:21;1.50;;;1.40;;
17614;SDS011;8926;49.720;6.576;2023-05-07T02:44:46;1.60;;;1.50;;
17614;SDS011;8926;49.720;6.576;2023-05-07T02:47:12;1.70;;;1.60;;
17614;SDS011;8926;49.720;6.576;2023-05-07T02:49:39;1.67;;;1.57;;
17614;SDS011;8926;49.720;6.576;2023-05-07T02:52:04;1.80;;;1.70;;
17614;SDS011;8926;49.720;6.576;2023-05-07T02:54:29;1.70;;;1.60;;
17614;SDS011;8926;49.720;6.576;2023-05-07T02:56:55;1.83;;;1.73;;
17614;SDS011;8926;49.720;6.576;2023-05-07T02:59:21;1.40;;;1.30;;
17614;SDS011;8926;49.720;6.576;2023-05-07T03:01:46;1.50;;;1.40;;
17614;SDS011;8926;49.720;6.576;2023-05-07T03:04:13;1.40;;;1.30;;
17614;SDS011;8926;49.720;6.576;2023-05-07T03:06:38;1.30;;;1.20;;
17614;SDS011;8926;49.720;6.576;2023-05-07T03:09:03;1.50;;;1.40;;
17614;SDS011;8926;49.720;6.576;2023-05-07T03:11:29;1.90;;;1.80;;
17614;SDS011;8926;49.720;6.576;2023-05-07T03:13:54;2.00;;;1.90;;
17614;SDS011;8926;49.720;6.576;2023-05-07T03:16:20;2.30;;;1.90;;
17614;SDS011;8926;49.720;6.576;2023-05-07T03:18:45;1.80;;;1.70;;
17614;SDS011;8926;49.720;6.576;2023-05-07T03:21:11;2.07;;;1.90;;
17614;SDS011;8926;49.720;6.576;2023-05-07T03:23:36;1.77;;;1.67;;
17614;SDS011;8926;49.720;6.576;2023-05-07T03:26:01;1.83;;;1.67;;
17614;SDS011;8926;49.720;6.576;2023-05-07T03:28:27;1.77;;;1.67;;
17614;SDS011;8926;49.720;6.576;2023-05-07T03:30:52;1.50;;;1.40;;
17614;SDS011;8926;49.720;6.576;2023-05-07T03:33:17;1.97;;;1.87;;
17614;SDS011;8926;49.720;6.576;2023-05-07T03:35:43;1.80;;;1.70;;
17614;SDS011;8926;49.720;6.576;2023-05-07T03:38:08;2.40;;;2.20;;
17614;SDS011;8926;49.720;6.576;2023-05-07T03:40:33;2.40;;;2.20;;
17614;SDS011;8926;49.720;6.576;2023-05-07T03:42:59;1.93;;;1.83;;
17614;SDS011;8926;49.720;6.576;2023-05-07T03:45:25;1.80;;;1.70;;
17614;SDS011;8926;49.720;6.576;2023-05-07T03:47:50;1.60;;;1.50;;
17614;SDS011;8926;49.720;6.576;2023-05-07T03:50:16;1.80;;;1.70;;
17614;SDS011;8926;49.720;6.576;2023-05-07T03:52:41;1.77;;;1.60;;
17614;SDS011;8926;49.720;6.576;2023-05-07T03:55:07;1.10;;;1.10;;
17614;SDS011;8926;49.720;6.576;2023-05-07T03:57:32;1.20;;;1.20;;
17614;SDS011;8926;49.720;6.576;2023-05-07T03:59:58;1.50;;;1.40;;
17614;SDS011;8926;49.720;6.576;2023-05-07T04:02:23;1.33;;;1.23;;
17614;SDS011;8926;49.720;6.576;2023-05-07T04:04:48;1.50;;;1.40;;
17614;SDS011;8926;49.720;6.576;2023-05-07T04:07:14;1.70;;;1.60;;
17614;SDS011;8926;49.720;6.576;2023-05-07T04:09:40;1.67;;;1.57;;
17614;SDS011;8926;49.720;6.576;2023-05-07T04:12:05;1.50;;;1.40;;
17614;SDS011;8926;49.720;6.576;2023-05-07T04:14:30;1.40;;;1.40;;
17614;SDS011;8926;49.720;6.576;2023-05-07T04:16:57;1.40;;;1.30;;
17614;SDS011;8926;49.720;6.576;2023-05-07T04:19:23;1.30;;;1.20;;
17614;SDS011;8926;49.720;6.576;2023-05-07T04:21:48;1.00;;;1.00;;
17614;SDS011;8926;49.720;6.576;2023-05-07T04:24:13;1.30;;;1.20;;
17614;SDS011;8926;49.720;6.576;2023-05-07T04:26:39;1.07;;;1.07;;
17614;SDS011;8926;49.720;6.576;2023-05-07T04:29:05;1.40;;;1.30;;
17614;SDS011;8926;49.720;6.576;2023-05-07T04:31:30;1.20;;;1.20;;
17614;SDS011;8926;49.720;6.576;2023-05-07T04:33:56;1.00;;;1.00;;
17614;SDS011;8926;49.720;6.576;2023-05-07T04:36:21;1.40;;;1.30;;
17614;SDS011;8926;49.720;6.576;2023-05-07T04:38:47;1.00;;;1.00;;
17614;SDS011;8926;49.720;6.576;2023-05-07T04:41:13;1.10;;;1.10;;
17614;SDS011;8926;49.720;6.576;2023-05-07T04:43:38;1.27;;;1.17;;
17614;SDS011;8926;49.720;6.576;2023-05-07T04:46:03;1.23;;;1.23;;
17614;SDS011;8926;49.720;6.576;2023-05-07T04:48:29;1.20;;;1.10;;
17614;SDS011;8926;49.720;6.576;2023-05-07T04:50:55;1.40;;;1.30;;
17614;SDS011;8926;49.720;6.576;2023-05-07T04:53:20;1.37;;;1.30;;
17614;SDS011;8926;49.720;6.576;2023-05-07T04:55:46;1.03;;;1.03;;
17614;SDS011;8926;49.720;6.576;2023-05-07T04:58:11;1.20;;;1.10;;
17614;SDS011;8926;49.720;6.576;2023-05-07T05:00:37;1.20;;;1.20;;
17614;SDS011;8926;49.720;6.576;2023-05-07T05:03:03;1.17;;;1.17;;
17614;SDS011;8926;49.720;6.576;2023-05-07T05:05:30;1.20;;;1.20;;
17614;SDS011;8926;49.720;6.576;2023-05-07T05:07:55;0.93;;;0.93;;
17614;SDS011;8926;49.720;6.576;2023-05-07T05:10:21;1.30;;;1.20;;
17614;SDS011;8926;49.720;6.576;2023-05-07T05:12:46;1.20;;;1.10;;
17614;SDS011;8926;49.720;6.576;2023-05-07T05:15:12;1.40;;;1.40;;
17614;SDS011;8926;49.720;6.576;2023-05-07T05:17:38;1.50;;;1.40;;
17614;SDS011;8926;49.720;6.576;2023-05-07T05:20:03;1.30;;;1.20;;
17614;SDS011;8926;49.720;6.576;2023-05-07T05:22:30;1.43;;;1.33;;
17614;SDS011;8926;49.720;6.576;2023-05-07T05:24:56;1.00;;;1.00;;
17614;SDS011;8926;49.720;6.576;2023-05-07T05:27:22;1.17;;;1.17;;
17614;SDS011;8926;49.720;6.576;2023-05-07T05:29:47;1.10;;;1.10;;
17614;SDS011;8926;49.720;6.576;2023-05-07T05:32:12;1.10;;;1.00;;
17614;SDS011;8926;49.720;6.576;2023-05-07T05:34:38;1.23;;;1.23;;
17614;SDS011;8926;49.720;6.576;2023-05-07T05:37:03;1.30;;;1.30;;
17614;SDS011;8926;49.720;6.576;2023-05-07T05:39:28;0.90;;;0.90;;
17614;SDS011;8926;49.720;6.576;2023-05-07T05:41:54;1.27;;;1.27;;
17614;SDS011;8926;49.720;6.576;2023-05-07T05:44:19;1.10;;;1.10;;
17614;SDS011;8926;49.720;6.576;2023-05-07T05:46:44;1.30;;;1.23;;
17614;SDS011;8926;49.720;6.576;2023-05-07T05:49:10;1.60;;;1.50;;
17614;SDS011;8926;49.720;6.576;2023-05-07T05:51:35;1.20;;;1.20;;
17614;SDS011;8926;49.720;6.576;2023-05-07T05:54:00;1.00;;;1.00;;
17614;SDS011;8926;49.720;6.576;2023-05-07T05:56:25;1.47;;;1.40;;
17614;SDS011;8926;49.720;6.576;2023-05-07T05:58:51;1.57;;;1.40;;
17614;SDS011;8926;49.720;6.576;2023-05-07T06:01:17;1.27;;;1.27;;
17614;SDS011;8926;49.720;6.576;2023-05-07T06:03:43;1.40;;;1.30;;
17614;SDS011;8926;49.720;6.576;2023-05-07T06:06:08;1.30;;;1.20;;
17614;SDS011;8926;49.720;6.576;2023-05-07T06:08:34;1.37;;;1.37;;
17614;SDS011;8926;49.720;6.576;2023-05-07T06:10:59;1.27;;;1.17;;
17614;SDS011;8926;49.720;6.576;2023-05-07T06:13:26;1.20;;;1.20;;
17614;SDS011;8926;49.720;6.576;2023-05-07T06:15:51;1.13;;;1.13;;
17614;SDS011;8926;49.720;6.576;2023-05-07T06:18:17;1.00;;;1.00;;
17614;SDS011;8926;49.720;6.576;2023-05-07T06:20:42;1.07;;;1.07;;
17614;SDS011;8926;49.720;6.576;2023-05-07T06:23:07;1.27;;;1.20;;
17614;SDS011;8926;49.720;6.576;2023-05-07T06:25:33;1.30;;;1.20;;
17614;SDS011;8926;49.720;6.576;2023-05-07T06:27:58;1.10;;;1.10;;
17614;SDS011;8926;49.720;6.576;2023-05-07T06:30:23;1.50;;;1.40;;
17614;SDS011;8926;49.720;6.576;2023-05-07T06:32:49;1.40;;;1.30;;
17614;SDS011;8926;49.720;6.576;2023-05-07T06:35:14;1.30;;;1.30;;
17614;SDS011;8926;49.720;6.576;2023-05-07T06:37:40;0.87;;;0.87;;
17614;SDS011;8926;49.720;6.576;2023-05-07T06:40:07;1.10;;;1.10;;
17614;SDS011;8926;49.720;6.576;2023-05-07T06:42:33;1.00;;;1.00;;
17614;SDS011;8926;49.720;6.576;2023-05-07T06:44:58;1.10;;;1.10;;
17614;SDS011;8926;49.720;6.576;2023-05-07T06:47:24;0.90;;;0.90;;
17614;SDS011;8926;49.720;6.576;2023-05-07T06:49:49;1.20;;;1.20;;
17614;SDS011;8926;49.720;6.576;2023-05-07T06:52:14;1.13;;;1.03;;
17614;SDS011;8926;49.720;6.576;2023-05-07T06:54:40;1.00;;;1.00;;
17614;SDS011;8926;49.720;6.576;2023-05-07T06:57:05;1.73;;;1.50;;
17614;SDS011;8926;49.720;6.576;2023-05-07T06:59:30;0.90;;;0.90;;
17614;SDS011;8926;49.720;6.576;2023-05-07T07:01:55;1.40;;;1.33;;
17614;SDS011;8926;49.720;6.576;2023-05-07T07:04:21;1.40;;;1.40;;
17614;SDS011;8926;49.720;6.576;2023-05-07T07:06:48;1.73;;;1.10;;
17614;SDS011;8926;49.720;6.576;2023-05-07T07:09:13;0.80;;;0.80;;
17614;SDS011;8926;49.720;6.576;2023-05-07T07:11:38;1.53;;;1.43;;
17614;SDS011;8926;49.720;6.576;2023-05-07T07:14:04;1.80;;;1.70;;
17614;SDS011;8926;49.720;6.576;2023-05-07T07:16:30;1.70;;;1.60;;
17614;SDS011;8926;49.720;6.576;2023-05-07T07:18:55;1.30;;;1.20;;
17614;SDS011;8926;49.720;6.576;2023-05-07T07:21:21;1.20;;;1.20;;
17614;SDS011;8926;49.720;6.576;2023-05-07T07:23:46;1.40;;;1.30;;
17614;SDS011;8926;49.720;6.576;2023-05-07T07:26:11;1.53;;;1.43;;
17614;SDS011;8926;49.720;6.576;2023-05-07T07:28:46;1.00;;;1.00;;
17614;SDS011;8926;49.720;6.576;2023-05-07T07:31:11;1.47;;;1.37;;
17614;SDS011;8926;49.720;6.576;2023-05-07T07:33:37;1.20;;;1.20;;
17614;SDS011;8926;49.720;6.576;2023-05-07T07:36:04;1.30;;;1.20;;
17614;SDS011;8926;49.720;6.576;2023-05-07T07:38:30;1.20;;;1.10;;
17614;SDS011;8926;49.720;6.576;2023-05-07T07:40:56;1.27;;;1.20;;
17614;SDS011;8926;49.720;6.576;2023-05-07T07:43:21;1.00;;;1.00;;
17614;SDS011;8926;49.720;6.576;2023-05-07T07:45:46;1.10;;;1.10;;
17614;SDS011;8926;49.720;6.576;2023-05-07T07:48:12;1.10;;;1.00;;
17614;SDS011;8926;49.720;6.576;2023-05-07T07:50:37;0.90;;;0.90;;
17614;SDS011;8926;49.720;6.576;2023-05-07T07:53:03;0.90;;;0.90;;
17614;SDS011;8926;49.720;6.576;2023-05-07T07:55:28;1.07;;;1.07;;
17614;SDS011;8926;49.720;6.576;2023-05-07T07:57:56;1.33;;;1.23;;
17614;SDS011;8926;49.720;6.576;2023-05-07T08:00:21;0.90;;;0.90;;
17614;SDS011;8926;49.720;6.576;2023-05-07T08:02:46;1.17;;;1.17;;
17614;SDS011;8926;49.720;6.576;2023-05-07T08:05:12;1.00;;;1.00;;
17614;SDS011;8926;49.720;6.576;2023-05-07T08:07:37;1.00;;;1.00;;
17614;SDS011;8926;49.720;6.576;2023-05-07T08:10:02;1.47;;;1.37;;
17614;SDS011;8926;49.720;6.576;2023-05-07T08:12:28;1.13;;;1.13;;
17614;SDS011;8926;49.720;6.576;2023-05-07T08:14:54;1.00;;;1.00;;
17614;SDS011;8926;49.720;6.576;2023-05-07T08:17:19;1.10;;;1.10;;
17614;SDS011;8926;49.720;6.576;2023-05-07T08:19:47;0.80;;;0.80;;
17614;SDS011;8926;49.720;6.576;2023-05-07T08:22:12;0.90;;;0.90;;
17614;SDS011;8926;49.720;6.576;2023-05-07T08:24:38;1.10;;;1.00;;
17614;SDS011;8926;49.720;6.576;2023-05-07T08:27:03;0.93;;;0.93;;
17614;SDS011;8926;49.720;6.576;2023-05-07T08:29:28;0.90;;;0.90;;
17614;SDS011;8926;49.720;6.576;2023-05-07T08:31:53;0.90;;;0.90;;
17614;SDS011;8926;49.720;6.576;2023-05-07T08:34:19;0.80;;;0.80;;
17614;SDS011;8926;49.720;6.576;2023-05-07T08:36:44;0.80;;;0.80;;
17614;SDS011;8926;49.720;6.576;2023-05-07T08:39:13;1.30;;;1.20;;
17614;SDS011;8926;49.720;6.576;2023-05-07T08:41:38;0.90;;;0.90;;
17614;SDS011;8926;49.720;6.576;2023-05-07T08:44:05;1.10;;;1.10;;
17614;SDS011;8926;49.720;6.576;2023-05-07T08:46:36;1.00;;;1.00;;
17614;SDS011;8926;49.720;6.576;2023-05-07T08:49:01;1.13;;;1.03;;
17614;SDS011;8926;49.720;6.576;2023-05-07T08:51:27;0.97;;;0.97;;
17614;SDS011;8926;49.720;6.576;2023-05-07T08:53:53;1.20;;;1.20;;
17614;SDS011;8926;49.720;6.576;2023-05-07T08:56:18;1.00;;;0.90;;
17614;SDS011;8926;49.720;6.576;2023-05-07T08:58:45;0.90;;;0.90;;
17614;SDS011;8926;49.720;6.576;2023-05-07T09:01:14;1.00;;;1.00;;
17614;SDS011;8926;49.720;6.576;2023-05-07T09:03:40;0.77;;;0.77;;
17614;SDS011;8926;49.720;6.576;2023-05-07T09:06:06;0.90;;;0.90;;
17614;SDS011;8926;49.720;6.576;2023-05-07T09:08:32;0.70;;;0.70;;
17614;SDS011;8926;49.720;6.576;2023-05-07T09:10:58;1.00;;;0.90;;
17614;SDS011;8926;49.720;6.576;2023-05-07T09:13:24;0.87;;;0.87;;
17614;SDS011;8926;49.720;6.576;2023-05-07T09:15:49;1.20;;;1.10;;
17614;SDS011;8926;49.720;6.576;2023-05-07T09:18:15;1.20;;;1.10;;
17614;SDS011;8926;49.720;6.576;2023-05-07T09:20:40;1.40;;;1.30;;
17614;SDS011;8926;49.720;6.576;2023-05-07T09:23:06;1.00;;;1.00;;
17614;SDS011;8926;49.720;6.576;2023-05-07T09:25:33;0.90;;;0.90;;
17614;SDS011;8926;49.720;6.576;2023-05-07T09:28:00;1.40;;;1.30;;
17614;SDS011;8926;49.720;6.576;2023-05-07T09:30:30;0.87;;;0.87;;
17614;SDS011;8926;49.720;6.576;2023-05-07T09:32:57;1.00;;;1.00;;
17614;SDS011;8926;49.720;6.576;2023-05-07T09:35:24;1.30;;;1.20;;
17614;SDS011;8926;49.720;6.576;2023-05-07T09:37:52;1.87;;;1.30;;
17614;SDS011;8926;49.720;6.576;2023-05-07T09:40:22;1.20;;;1.10;;
17614;SDS011;8926;49.720;6.576;2023-05-07T09:42:49;1.60;;;1.50;;
17614;SDS011;8926;49.720;6.576;2023-05-07T09:45:15;1.00;;;1.00;;
17614;SDS011;8926;49.720;6.576;2023-05-07T09:47:41;1.73;;;1.47;;
17614;SDS011;8926;49.720;6.576;2023-05-07T09:50:09;3.13;;;1.50;;
17614;SDS011;8926;49.720;6.576;2023-05-07T09:52:37;1.10;;;1.10;;
17614;SDS011;8926;49.720;6.576;2023-05-07T09:55:05;1.27;;;1.00;;
17614;SDS011;8926;49.720;6.576;2023-05-07T09:57:32;1.10;;;1.10;;
17614;SDS011;8926;49.720;6.576;2023-05-07T09:59:58;1.10;;;1.10;;
17614;SDS011;8926;49.720;6.576;2023-05-07T10:02:27;1.47;;;1.37;;
17614;SDS011;8926;49.720;6.576;2023-05-07T10:04:55;1.50;;;1.40;;
17614;SDS011;8926;49.720;6.576;2023-05-07T10:07:22;1.10;;;1.00;;
17614;SDS011;8926;49.720;6.576;2023-05-07T10:09:48;1.57;;;0.93;;
17614;SDS011;8926;49.720;6.576;2023-05-07T10:12:14;1.20;;;1.20;;
17614;SDS011;8926;49.720;6.576;2023-05-07T10:14:40;0.90;;;0.90;;
17614;SDS011;8926;49.720;6.576;2023-05-07T10:17:05;0.87;;;0.87;;
17614;SDS011;8926;49.720;6.576;2023-05-07T10:19:31;0.90;;;0.90;;
17614;SDS011;8926;49.720;6.576;2023-05-07T10:22:01;0.70;;;0.70;;
17614;SDS011;8926;49.720;6.576;2023-05-07T10:24:31;0.93;;;0.80;;
17614;SDS011;8926;49.720;6.576;2023-05-07T10:26:59;1.10;;;1.10;;
17614;SDS011;8926;49.720;6.576;2023-05-07T10:34:39;3.40;;;1.60;;
17614;SDS011;8926;49.720;6.576;2023-05-07T10:37:08;0.93;;;0.93;;
17614;SDS011;8926;49.720;6.576;2023-05-07T10:39:35;1.57;;;1.20;;
17614;SDS011;8926;49.720;6.576;2023-05-07T10:42:07;1.50;;;1.40;;
17614;SDS011;8926;49.720;6.576;2023-05-07T10:44:36;1.27;;;1.27;;
17614;SDS011;8926;49.720;6.576;2023-05-07T10:47:15;1.40;;;1.30;;
17614;SDS011;8926;49.720;6.576;2023-05-07T10:52:15;0.93;;;0.93;;
17614;SDS011;8926;49.720;6.576;2023-05-07T10:54:42;0.90;;;0.90;;
17614;SDS011;8926;49.720;6.576;2023-05-07T11:05:25;1.20;;;1.20;;
17614;SDS011;8926;49.720;6.576;2023-05-07T11:08:00;1.00;;;1.00;;
17614;SDS011;8926;49.720;6.576;2023-05-07T11:13:15;1.83;;;1.10;;
17614;SDS011;8926;49.720;6.576;2023-05-07T11:15:42;1.23;;;1.13;;
17614;SDS011;8926;49.720;6.576;2023-05-07T11:18:11;1.23;;;1.13;;
17614;SDS011;8926;49.720;6.576;2023-05-07T11:20:51;1.00;;;1.00;;
17614;SDS011;8926;49.720;6.576;2023-05-07T11:28:28;1.30;;;1.30;;
17614;SDS011;8926;49.720;6.576;2023-05-07T11:30:55;1.30;;;1.20;;
17614;SDS011;8926;49.720;6.576;2023-05-07T11:33:22;1.00;;;1.00;;
17614;SDS011;8926;49.720;6.576;2023-05-07T11:35:47;1.40;;;1.20;;
17614;SDS011;8926;49.720;6.576;2023-05-07T11:38:13;1.00;;;1.00;;
17614;SDS011;8926;49.720;6.576;2023-05-07T11:40:51;0.80;;;0.80;;
17614;SDS011;8926;49.720;6.576;2023-05-07T11:43:25;1.10;;;1.10;;
17614;SDS011;8926;49.720;6.576;2023-05-07T11:45:51;1.63;;;1.33;;
17614;SDS011;8926;49.720;6.576;2023-05-07T11:48:16;1.27;;;1.17;;
17614;SDS011;8926;49.720;6.576;2023-05-07T11:50:59;1.60;;;1.50;;
17614;SDS011;8926;49.720;6.576;2023-05-07T11:53:27;1.43;;;1.33;;
17614;SDS011;8926;49.720;6.576;2023-05-07T11:55:59;1.53;;;1.43;;
17614;SDS011;8926;49.720;6.576;2023-05-07T11:58:25;1.13;;;1.10;;
17614;SDS011;8926;49.720;6.576;2023-05-07T12:00:53;1.30;;;1.20;;
17614;SDS011;8926;49.720;6.576;2023-05-07T12:03:19;1.90;;;1.43;;
17614;SDS011;8926;49.720;6.576;2023-05-07T12:05:45;1.73;;;1.63;;
17614;SDS011;8926;49.720;6.576;2023-05-07T12:08:14;1.57;;;1.43;;
17614;SDS011;8926;49.720;6.576;2023-05-07T12:10:43;1.27;;;1.17;;
17614;SDS011;8926;49.720;6.576;2023-05-07T12:15:45;1.50;;;1.37;;
17614;SDS011;8926;49.720;6.576;2023-05-07T12:18:11;1.40;;;1.30;;
17614;SDS011;8926;49.720;6.576;2023-05-07T12:20:37;1.63;;;1.40;;
17614;SDS011;8926;49.720;6.576;2023-05-07T12:23:03;1.37;;;1.27;;
17614;SDS011;8926;49.720;6.576;2023-05-07T12:25:32;1.43;;;1.33;;
17614;SDS011;8926;49.720;6.576;2023-05-07T12:28:03;1.37;;;1.27;;
17614;SDS011;8926;49.720;6.576;2023-05-07T12:30:36;1.40;;;1.30;;
17614;SDS011;8926;49.720;6.576;2023-05-07T12:33:02;1.37;;;1.23;;
17614;SDS011;8926;49.720;6.576;2023-05-07T12:35:31;1.40;;;1.30;;
17614;SDS011;8926;49.720;6.576;2023-05-07T12:37:57;1.20;;;1.17;;
17614;SDS011;8926;49.720;6.576;2023-05-07T12:40:34;1.30;;;1.20;;
17614;SDS011;8926;49.720;6.576;2023-05-07T12:43:01;0.90;;;0.90;;
17614;SDS011;8926;49.720;6.576;2023-05-07T12:45:26;0.90;;;0.90;;
17614;SDS011;8926;49.720;6.576;2023-05-07T12:47:51;1.07;;;1.07;;
17614;SDS011;8926;49.720;6.576;2023-05-07T12:50:17;1.17;;;1.07;;
17614;SDS011;8926;49.720;6.576;2023-05-07T12:52:43;0.90;;;0.90;;
17614;SDS011;8926;49.720;6.576;2023-05-07T12:55:11;0.73;;;0.73;;
17614;SDS011;8926;49.720;6.576;2023-05-07T12:57:39;0.87;;;0.87;;
17614;SDS011;8926;49.720;6.576;2023-05-07T13:00:06;1.03;;;1.03;;
17614;SDS011;8926;49.720;6.576;2023-05-07T13:02:41;1.40;;;1.30;;
17614;SDS011;8926;49.720;6.576;2023-05-07T13:05:09;1.10;;;1.10;;
17614;SDS011;8926;49.720;6.576;2023-05-07T13:07:34;1.30;;;1.20;;
17614;SDS011;8926;49.720;6.576;2023-05-07T13:10:01;1.03;;;1.03;;
17614;SDS011;8926;49.720;6.576;2023-05-07T13:12:26;1.37;;;1.27;;
17614;SDS011;8926;49.720;6.576;2023-05-07T13:14:53;1.30;;;1.20;;
17614;SDS011;8926;49.720;6.576;2023-05-07T13:17:18;1.50;;;1.40;;
17614;SDS011;8926;49.720;6.576;2023-05-07T13:19:44;1.30;;;1.20;;
17614;SDS011;8926;49.720;6.576;2023-05-07T13:22:12;1.33;;;1.23;;
17614;SDS011;8926;49.720;6.576;2023-05-07T13:24:38;1.10;;;1.10;;
17614;SDS011;8926;49.720;6.576;2023-05-07T13:27:06;1.27;;;1.17;;
17614;SDS011;8926;49.720;6.576;2023-05-07T13:29:32;1.27;;;1.17;;
17614;SDS011;8926;49.720;6.576;2023-05-07T13:31:57;1.07;;;1.07;;
17614;SDS011;8926;49.720;6.576;2023-05-07T13:34:22;0.90;;;0.90;;
17614;SDS011;8926;49.720;6.576;2023-05-07T13:36:48;1.00;;;1.00;;
17614;SDS011;8926;49.720;6.576;2023-05-07T13:39:13;1.00;;;1.00;;
17614;SDS011;8926;49.720;6.576;2023-05-07T13:41:39;1.20;;;1.20;;
17614;SDS011;8926;49.720;6.576;2023-05-07T13:44:04;1.33;;;1.20;;
17614;SDS011;8926;49.720;6.576;2023-05-07T13:46:29;1.20;;;1.20;;
17614;SDS011;8926;49.720;6.576;2023-05-07T13:48:55;1.10;;;1.10;;
17614;SDS011;8926;49.720;6.576;2023-05-07T13:51:21;1.37;;;1.27;;
17614;SDS011;8926;49.720;6.576;2023-05-07T13:53:46;1.10;;;1.00;;
17614;SDS011;8926;49.720;6.576;2023-05-07T13:56:11;1.23;;;1.23;;
17614;SDS011;8926;49.720;6.576;2023-05-07T13:58:37;1.30;;;1.20;;
17614;SDS011;8926;49.720;6.576;2023-05-07T14:01:02;1.83;;;1.50;;
17614;SDS011;8926;49.720;6.576;2023-05-07T14:03:27;1.53;;;1.43;;
17614;SDS011;8926;49.720;6.576;2023-05-07T14:05:53;1.30;;;1.20;;
17614;SDS011;8926;49.720;6.576;2023-05-07T14:08:18;1.00;;;1.00;;
17614;SDS011;8926;49.720;6.576;2023-05-07T14:10:45;0.97;;;0.97;;
17614;SDS011;8926;49.720;6.576;2023-05-07T14:13:11;1.17;;;1.10;;
17614;SDS011;8926;49.720;6.576;2023-05-07T14:15:36;0.90;;;0.90;;
17614;SDS011;8926;49.720;6.576;2023-05-07T14:18:02;0.93;;;0.93;;
17614;SDS011;8926;49.720;6.576;2023-05-07T14:20:27;1.30;;;1.30;;
17614;SDS011;8926;49.720;6.576;2023-05-07T14:22:53;1.80;;;1.70;;
17614;SDS011;8926;49.720;6.576;2023-05-07T14:25:18;1.40;;;1.30;;
17614;SDS011;8926;49.720;6.576;2023-05-07T14:27:44;1.10;;;1.03;;
17614;SDS011;8926;49.720;6.576;2023-05-07T14:30:09;1.50;;;1.40;;
17614;SDS011;8926;49.720;6.576;2023-05-07T14:32:35;1.97;;;1.60;;
17614;SDS011;8926;49.720;6.576;2023-05-07T14:35:01;1.50;;;1.40;;
17614;SDS011;8926;49.720;6.576;2023-05-07T14:37:26;1.63;;;1.53;;
17614;SDS011;8926;49.720;6.576;2023-05-07T14:39:51;0.90;;;0.90;;
17614;SDS011;8926;49.720;6.576;2023-05-07T14:42:17;1.47;;;1.37;;
17614;SDS011;8926;49.720;6.576;2023-05-07T14:44:42;1.23;;;1.23;;
17614;SDS011;8926;49.720;6.576;2023-05-07T14:47:09;1.50;;;1.40;;
17614;SDS011;8926;49.720;6.576;2023-05-07T14:49:35;1.17;;;1.17;;
17614;SDS011;8926;49.720;6.576;2023-05-07T14:52:00;1.33;;;1.30;;
17614;SDS011;8926;49.720;6.576;2023-05-07T14:54:26;1.20;;;1.10;;
17614;SDS011;8926;49.720;6.576;2023-05-07T14:56:51;1.00;;;1.00;;
17614;SDS011;8926;49.720;6.576;2023-05-07T14:59:16;1.50;;;1.40;;
17614;SDS011;8926;49.720;6.576;2023-05-07T15:01:45;1.80;;;1.60;;
17614;SDS011;8926;49.720;6.576;2023-05-07T15:04:14;1.20;;;1.20;;
17614;SDS011;8926;49.720;6.576;2023-05-07T15:06:40;1.30;;;1.20;;
17614;SDS011;8926;49.720;6.576;2023-05-07T15:09:05;1.60;;;1.50;;
17614;SDS011;8926;49.720;6.576;2023-05-07T15:11:30;1.20;;;1.20;;
17614;SDS011;8926;49.720;6.576;2023-05-07T15:13:56;1.37;;;1.27;;
17614;SDS011;8926;49.720;6.576;2023-05-07T15:16:21;2.30;;;1.50;;
17614;SDS011;8926;49.720;6.576;2023-05-07T15:18:47;1.40;;;1.30;;
17614;SDS011;8926;49.720;6.576;2023-05-07T15:21:13;1.50;;;1.40;;